DAL1582 SVMC-TBPB
Flight info
| Callsign | DAL1582 |
|---|---|
| Flight time | 1h 51m |
| Altitude | FL330 |
| Route | ASIBA1.MAU VUNUM TOROP OPLUD BGI |
| Aircraft | MD82/M-S/NAEXS |
Departure
| Time | 2026-05-08 00:50 |
|---|---|
| Airport | La Chinita International Airport (SVMC) |
Arrival
| Time | 2026-05-08 02:41 |
|---|---|
| Airport | Grantley Adams International Airport (TBPB) |
| Time | Latitude | Longitude | Altitude | Speed | Heading |
|---|---|---|---|---|---|
| 2026-05-08 00:05 | 10.56135 | -71.72232 | 243 ft | 0 kts | 180° |
| 2026-05-08 00:41 | 10.56134 | -71.72232 | 243 ft | 0 kts | 180° |
| 2026-05-08 00:42 | 10.56138 | -71.72232 | 243 ft | 2 kts | 180° |
| 2026-05-08 00:42 | 10.56154 | -71.72232 | 243 ft | 3 kts | 180° |
| 2026-05-08 00:42 | 10.56171 | -71.72232 | 243 ft | 3 kts | 180° |
| 2026-05-08 00:43 | 10.56184 | -71.72232 | 243 ft | 3 kts | 180° |
| 2026-05-08 00:43 | 10.56206 | -71.72230 | 243 ft | 3 kts | 205° |
| 2026-05-08 00:43 | 10.56219 | -71.72219 | 243 ft | 3 kts | 246° |
| 2026-05-08 00:43 | 10.56221 | -71.72205 | 243 ft | 0 kts | 270° |
| 2026-05-08 00:44 | 10.56221 | -71.72206 | 243 ft | 0 kts | 270° |
| 2026-05-08 00:45 | 10.56221 | -71.72227 | 243 ft | 5 kts | 270° |
| 2026-05-08 00:45 | 10.56203 | -71.72266 | 243 ft | 7 kts | 230° |
| 2026-05-08 00:45 | 10.56188 | -71.72321 | 243 ft | 10 kts | 276° |
| 2026-05-08 00:45 | 10.56206 | -71.72389 | 243 ft | 11 kts | 284° |
| 2026-05-08 00:46 | 10.56209 | -71.72472 | 243 ft | 13 kts | 228° |
| 2026-05-08 00:46 | 10.56121 | -71.72511 | 243 ft | 15 kts | 200° |
| 2026-05-08 00:46 | 10.56014 | -71.72550 | 243 ft | 18 kts | 200° |
| 2026-05-08 00:46 | 10.55891 | -71.72597 | 243 ft | 20 kts | 200° |
| 2026-05-08 00:47 | 10.55752 | -71.72648 | 243 ft | 23 kts | 200° |
| 2026-05-08 00:47 | 10.55597 | -71.72705 | 243 ft | 25 kts | 200° |
| 2026-05-08 00:47 | 10.55427 | -71.72768 | 243 ft | 27 kts | 200° |
| 2026-05-08 00:47 | 10.55245 | -71.72835 | 243 ft | 29 kts | 200° |
| 2026-05-08 00:48 | 10.55078 | -71.72941 | 243 ft | 28 kts | 229° |
| 2026-05-08 00:48 | 10.55032 | -71.73073 | 243 ft | 13 kts | 326° |
| 2026-05-08 00:48 | 10.55073 | -71.73075 | 243 ft | 0 kts | 19° |
| 2026-05-08 00:48 | 10.55084 | -71.73071 | 243 ft | 8 kts | 19° |
| 2026-05-08 00:49 | 10.55260 | -71.73007 | 243 ft | 53 kts | 20° |
| 2026-05-08 00:49 | 10.55793 | -71.72809 | 243 ft | 110 kts | 23° |
| 2026-05-08 00:49 | 10.56683 | -71.72483 | 244 ft | 162 kts | 20° |
| 2026-05-08 00:49 | 10.57837 | -71.72039 | 431 ft | 188 kts | 22° |
| 2026-05-08 00:50 | 10.59079 | -71.71526 | 1046 ft | 198 kts | 23° |
| 2026-05-08 00:50 | 10.60332 | -71.70987 | 1831 ft | 197 kts | 24° |
| 2026-05-08 00:50 | 10.61568 | -71.70375 | 2367 ft | 200 kts | 33° |
| 2026-05-08 00:50 | 10.62571 | -71.69312 | 2545 ft | 223 kts | 62° |
| 2026-05-08 00:51 | 10.63026 | -71.67736 | 2792 ft | 242 kts | 84° |
| 2026-05-08 00:51 | 10.62977 | -71.65998 | 3271 ft | 253 kts | 101° |
| 2026-05-08 00:51 | 10.62304 | -71.64342 | 3884 ft | 257 kts | 119° |
| 2026-05-08 00:51 | 10.61577 | -71.62654 | 4584 ft | 264 kts | 110° |
| 2026-05-08 00:52 | 10.61406 | -71.60781 | 5251 ft | 271 kts | 83° |
| 2026-05-08 00:52 | 10.61798 | -71.58937 | 6140 ft | 269 kts | 78° |
| 2026-05-08 00:52 | 10.62209 | -71.57036 | 6754 ft | 278 kts | 79° |
| 2026-05-08 00:52 | 10.62570 | -71.55138 | 7587 ft | 276 kts | 82° |
| 2026-05-08 00:53 | 10.62890 | -71.53192 | 8256 ft | 283 kts | 83° |
| 2026-05-08 00:53 | 10.63159 | -71.51303 | 8947 ft | 284 kts | 85° |
| 2026-05-08 00:53 | 10.63429 | -71.49190 | 9705 ft | 287 kts | 86° |
| 2026-05-08 00:53 | 10.63669 | -71.47180 | 10304 ft | 294 kts | 87° |
| 2026-05-08 00:54 | 10.64001 | -71.44319 | 10663 ft | 319 kts | 87° |
| 2026-05-08 00:54 | 10.64175 | -71.42797 | 10996 ft | 326 kts | 87° |
| 2026-05-08 00:54 | 10.64546 | -71.39734 | 11881 ft | 333 kts | 86° |
| 2026-05-08 00:54 | 10.64743 | -71.38162 | 12348 ft | 335 kts | 86° |
| 2026-05-08 00:55 | 10.65041 | -71.35800 | 13035 ft | 338 kts | 86° |
| 2026-05-08 00:55 | 10.65326 | -71.33431 | 13683 ft | 341 kts | 86° |
| 2026-05-08 00:55 | 10.65607 | -71.31057 | 14299 ft | 344 kts | 86° |
| 2026-05-08 00:55 | 10.65904 | -71.28615 | 14913 ft | 347 kts | 86° |
| 2026-05-08 00:56 | 10.66200 | -71.26210 | 15464 ft | 350 kts | 86° |
| 2026-05-08 00:56 | 10.66592 | -71.23016 | 16107 ft | 352 kts | 83° |
| 2026-05-08 00:56 | 10.66787 | -71.21379 | 16430 ft | 353 kts | 84° |
| 2026-05-08 00:56 | 10.67181 | -71.18010 | 16747 ft | 364 kts | 83° |
| 2026-05-08 00:57 | 10.67496 | -71.15436 | 16981 ft | 371 kts | 83° |
| 2026-05-08 00:57 | 10.67820 | -71.12835 | 17323 ft | 374 kts | 83° |
| 2026-05-08 00:57 | 10.68038 | -71.11091 | 17581 ft | 375 kts | 83° |
| 2026-05-08 00:57 | 10.68473 | -71.07579 | 18026 ft | 379 kts | 83° |
| 2026-05-08 00:58 | 10.68801 | -71.04919 | 18349 ft | 381 kts | 83° |
| 2026-05-08 00:58 | 10.69038 | -71.03136 | 18564 ft | 383 kts | 82° |
| 2026-05-08 00:58 | 10.69463 | -71.00477 | 18913 ft | 384 kts | 81° |
| 2026-05-08 00:58 | 10.69840 | -70.98376 | 19159 ft | 385 kts | 80° |
| 2026-05-08 00:59 | 10.70524 | -70.94789 | 19559 ft | 388 kts | 79° |
| 2026-05-08 00:59 | 10.71053 | -70.92096 | 19846 ft | 390 kts | 79° |
| 2026-05-08 00:59 | 10.71399 | -70.90300 | 20021 ft | 392 kts | 79° |
| 2026-05-08 00:59 | 10.71914 | -70.87567 | 20252 ft | 395 kts | 79° |
| 2026-05-08 01:00 | 10.72423 | -70.84829 | 20514 ft | 396 kts | 80° |
| 2026-05-08 01:00 | 10.73103 | -70.81142 | 20813 ft | 400 kts | 81° |
| 2026-05-08 01:00 | 10.73605 | -70.78366 | 20997 ft | 403 kts | 81° |
| 2026-05-08 01:00 | 10.74115 | -70.75564 | 21168 ft | 407 kts | 81° |
| 2026-05-08 01:01 | 10.74453 | -70.73686 | 21300 ft | 409 kts | 81° |
| 2026-05-08 01:01 | 10.74966 | -70.70837 | 21496 ft | 411 kts | 81° |
| 2026-05-08 01:01 | 10.75650 | -70.67088 | 21831 ft | 411 kts | 81° |
| 2026-05-08 01:01 | 10.75990 | -70.65223 | 21992 ft | 411 kts | 81° |
| 2026-05-08 01:02 | 10.76693 | -70.61416 | 22256 ft | 413 kts | 80° |
| 2026-05-08 01:02 | 10.77047 | -70.59516 | 22378 ft | 413 kts | 80° |
| 2026-05-08 01:02 | 10.77584 | -70.56642 | 22533 ft | 415 kts | 80° |
| 2026-05-08 01:02 | 10.78119 | -70.53746 | 22546 ft | 421 kts | 80° |
| 2026-05-08 01:03 | 10.78653 | -70.50825 | 22739 ft | 420 kts | 80° |
| 2026-05-08 01:03 | 10.79363 | -70.46944 | 23058 ft | 419 kts | 79° |
| 2026-05-08 01:03 | 10.79889 | -70.44026 | 23132 ft | 422 kts | 79° |
| 2026-05-08 01:03 | 10.80237 | -70.42068 | 23239 ft | 422 kts | 79° |
| 2026-05-08 01:04 | 10.80769 | -70.39135 | 23404 ft | 423 kts | 79° |
| 2026-05-08 01:04 | 10.81311 | -70.36189 | 23535 ft | 424 kts | 79° |
| 2026-05-08 01:04 | 10.82026 | -70.32269 | 23686 ft | 426 kts | 80° |
| 2026-05-08 01:04 | 10.82560 | -70.29317 | 23770 ft | 427 kts | 80° |
| 2026-05-08 01:05 | 10.83096 | -70.26366 | 23878 ft | 428 kts | 80° |
| 2026-05-08 01:05 | 10.83459 | -70.24372 | 23937 ft | 429 kts | 81° |
| 2026-05-08 01:05 | 10.84183 | -70.20365 | 23845 ft | 437 kts | 82° |
| 2026-05-08 01:05 | 10.84726 | -70.17332 | 23880 ft | 439 kts | 82° |
| 2026-05-08 01:06 | 10.85093 | -70.15295 | 23992 ft | 438 kts | 82° |
| 2026-05-08 01:06 | 10.85825 | -70.11271 | 24200 ft | 437 kts | 80° |
| 2026-05-08 01:06 | 10.86381 | -70.08257 | 24559 ft | 431 kts | 80° |
| 2026-05-08 01:06 | 10.86931 | -70.05282 | 24578 ft | 434 kts | 80° |
| 2026-05-08 01:07 | 10.87306 | -70.03256 | 24596 ft | 435 kts | 79° |
| 2026-05-08 01:07 | 10.88049 | -69.99229 | 24701 ft | 436 kts | 78° |
| 2026-05-08 01:07 | 10.88420 | -69.97244 | 24690 ft | 438 kts | 78° |
| 2026-05-08 01:07 | 10.89190 | -69.93147 | 24794 ft | 439 kts | 78° |
| 2026-05-08 01:08 | 10.89750 | -69.90093 | 24852 ft | 439 kts | 79° |
| 2026-05-08 01:08 | 10.90297 | -69.87069 | 24984 ft | 438 kts | 80° |
| 2026-05-08 01:08 | 10.90842 | -69.84024 | 25080 ft | 438 kts | 80° |
| 2026-05-08 01:08 | 10.91204 | -69.82016 | 25027 ft | 441 kts | 80° |
| 2026-05-08 01:09 | 10.91766 | -69.78918 | 25037 ft | 442 kts | 80° |
| 2026-05-08 01:09 | 10.92512 | -69.74830 | 25225 ft | 440 kts | 80° |
| 2026-05-08 01:09 | 10.93059 | -69.71834 | 25225 ft | 442 kts | 80° |
| 2026-05-08 01:09 | 10.93632 | -69.68708 | 25291 ft | 442 kts | 80° |
| 2026-05-08 01:10 | 10.94182 | -69.65692 | 25281 ft | 444 kts | 79° |
| 2026-05-08 01:10 | 10.94751 | -69.62548 | 25376 ft | 443 kts | 80° |
| 2026-05-08 01:10 | 10.95292 | -69.59533 | 25407 ft | 443 kts | 80° |
| 2026-05-08 01:10 | 10.95671 | -69.57422 | 25429 ft | 444 kts | 80° |
| 2026-05-08 01:11 | 10.96411 | -69.53315 | 25496 ft | 444 kts | 80° |
| 2026-05-08 01:11 | 10.96971 | -69.50224 | 25513 ft | 445 kts | 80° |
| 2026-05-08 01:11 | 10.97532 | -69.47130 | 25522 ft | 446 kts | 80° |
| 2026-05-08 01:11 | 10.98097 | -69.44030 | 25589 ft | 445 kts | 80° |
| 2026-05-08 01:12 | 10.98660 | -69.40942 | 25628 ft | 445 kts | 80° |
| 2026-05-08 01:12 | 10.99226 | -69.37842 | 25632 ft | 446 kts | 80° |
| 2026-05-08 01:12 | 10.99784 | -69.34796 | 25662 ft | 447 kts | 81° |
| 2026-05-08 01:12 | 11.00369 | -69.31637 | 25504 ft | 452 kts | 82° |
| 2026-05-08 01:13 | 11.00754 | -69.29536 | 25420 ft | 454 kts | 82° |
| 2026-05-08 01:13 | 11.01513 | -69.25358 | 25558 ft | 453 kts | 82° |
| 2026-05-08 01:13 | 11.01897 | -69.23241 | 25537 ft | 454 kts | 82° |
| 2026-05-08 01:13 | 11.02663 | -69.19044 | 25626 ft | 453 kts | 81° |
| 2026-05-08 01:14 | 11.03053 | -69.16947 | 25860 ft | 448 kts | 80° |
| 2026-05-08 01:14 | 11.03626 | -69.13895 | 25689 ft | 453 kts | 80° |
| 2026-05-08 01:14 | 11.04429 | -69.09601 | 25438 ft | 459 kts | 79° |
| 2026-05-08 01:14 | 11.05014 | -69.06413 | 25287 ft | 463 kts | 79° |
| 2026-05-08 01:15 | 11.05605 | -69.03174 | 25150 ft | 465 kts | 79° |
| 2026-05-08 01:15 | 11.06197 | -68.99977 | 25017 ft | 467 kts | 79° |
| 2026-05-08 01:15 | 11.06808 | -68.96686 | 24893 ft | 469 kts | 79° |
| 2026-05-08 01:15 | 11.07398 | -68.93421 | 24778 ft | 470 kts | 79° |
| 2026-05-08 01:16 | 11.07974 | -68.90167 | 24677 ft | 471 kts | 80° |
| 2026-05-08 01:16 | 11.08351 | -68.88032 | 24630 ft | 472 kts | 80° |
| 2026-05-08 01:16 | 11.09139 | -68.83596 | 24497 ft | 473 kts | 80° |
| 2026-05-08 01:16 | 11.09734 | -68.80334 | 24406 ft | 473 kts | 80° |
| 2026-05-08 01:17 | 11.10337 | -68.77050 | 24324 ft | 473 kts | 80° |
| 2026-05-08 01:17 | 11.10940 | -68.73739 | 24231 ft | 474 kts | 80° |
| 2026-05-08 01:17 | 11.11540 | -68.70444 | 24159 ft | 474 kts | 80° |
| 2026-05-08 01:17 | 11.12133 | -68.67183 | 24082 ft | 474 kts | 80° |
| 2026-05-08 01:18 | 11.12738 | -68.63854 | 24018 ft | 474 kts | 80° |
| 2026-05-08 01:18 | 11.13343 | -68.60543 | 23950 ft | 475 kts | 81° |
| 2026-05-08 01:18 | 11.13880 | -68.57641 | 23874 ft | 476 kts | 82° |
| 2026-05-08 01:18 | 11.14488 | -68.54334 | 23869 ft | 476 kts | 82° |
| 2026-05-08 01:19 | 11.15093 | -68.51030 | 23793 ft | 478 kts | 82° |
| 2026-05-08 01:19 | 11.15697 | -68.47721 | 23757 ft | 478 kts | 81° |
| 2026-05-08 01:19 | 11.16303 | -68.44421 | 23809 ft | 475 kts | 81° |
| 2026-05-08 01:19 | 11.16908 | -68.41101 | 23709 ft | 478 kts | 83° |
| 2026-05-08 01:20 | 11.17434 | -68.37767 | 23557 ft | 484 kts | 82° |
| 2026-05-08 01:20 | 11.17902 | -68.34331 | 23412 ft | 491 kts | 82° |
| 2026-05-08 01:20 | 11.18187 | -68.32033 | 23322 ft | 495 kts | 83° |
| 2026-05-08 01:20 | 11.18735 | -68.27376 | 23197 ft | 500 kts | 85° |
| 2026-05-08 01:21 | 11.19157 | -68.23869 | 23189 ft | 499 kts | 85° |
| 2026-05-08 01:21 | 11.19593 | -68.20395 | 23386 ft | 491 kts | 84° |
| 2026-05-08 01:21 | 11.20028 | -68.17059 | 23635 ft | 483 kts | 81° |
| 2026-05-08 01:21 | 11.20495 | -68.13595 | 23482 ft | 487 kts | 79° |
| 2026-05-08 01:22 | 11.20805 | -68.11321 | 23381 ft | 491 kts | 80° |
| 2026-05-08 01:22 | 11.21423 | -68.06702 | 23261 ft | 496 kts | 79° |
| 2026-05-08 01:22 | 11.21728 | -68.04387 | 23353 ft | 494 kts | 79° |
| 2026-05-08 01:22 | 11.22178 | -68.00928 | 23367 ft | 493 kts | 80° |
| 2026-05-08 01:23 | 11.22776 | -67.96316 | 23271 ft | 493 kts | 80° |
| 2026-05-08 01:23 | 11.23235 | -67.92842 | 23161 ft | 497 kts | 81° |
| 2026-05-08 01:23 | 11.23543 | -67.90528 | 23122 ft | 499 kts | 80° |
| 2026-05-08 01:23 | 11.24006 | -67.87029 | 23105 ft | 498 kts | 79° |
| 2026-05-08 01:24 | 11.24461 | -67.83556 | 23074 ft | 497 kts | 80° |
| 2026-05-08 01:24 | 11.24915 | -67.80095 | 23491 ft | 483 kts | 83° |
| 2026-05-08 01:24 | 11.25507 | -67.75603 | 23440 ft | 485 kts | 85° |
| 2026-05-08 01:24 | 11.25946 | -67.72255 | 23275 ft | 491 kts | 84° |
| 2026-05-08 01:25 | 11.26399 | -67.68777 | 23310 ft | 490 kts | 85° |
| 2026-05-08 01:25 | 11.26850 | -67.65340 | 23542 ft | 483 kts | 84° |
| 2026-05-08 01:25 | 11.27288 | -67.61950 | 23437 ft | 484 kts | 85° |
| 2026-05-08 01:25 | 11.27729 | -67.58551 | 23485 ft | 484 kts | 85° |
| 2026-05-08 01:26 | 11.28175 | -67.55159 | 23589 ft | 484 kts | 84° |
| 2026-05-08 01:26 | 11.28620 | -67.51774 | 23709 ft | 484 kts | 84° |
| 2026-05-08 01:26 | 11.29060 | -67.48398 | 23838 ft | 483 kts | 85° |
| 2026-05-08 01:26 | 11.29503 | -67.45024 | 23968 ft | 481 kts | 85° |
| 2026-05-08 01:27 | 11.29950 | -67.41646 | 24088 ft | 480 kts | 85° |
| 2026-05-08 01:27 | 11.30392 | -67.38282 | 24206 ft | 480 kts | 84° |
| 2026-05-08 01:27 | 11.30688 | -67.36047 | 24282 ft | 480 kts | 82° |
| 2026-05-08 01:27 | 11.31289 | -67.31551 | 24447 ft | 480 kts | 82° |
| 2026-05-08 01:28 | 11.31588 | -67.29311 | 24529 ft | 480 kts | 82° |
| 2026-05-08 01:28 | 11.32036 | -67.25964 | 24655 ft | 481 kts | 82° |
| 2026-05-08 01:28 | 11.32586 | -67.21818 | 24764 ft | 481 kts | 84° |
| 2026-05-08 01:28 | 11.33033 | -67.18439 | 24672 ft | 486 kts | 83° |
| 2026-05-08 01:29 | 11.33335 | -67.16155 | 24644 ft | 488 kts | 83° |
| 2026-05-08 01:29 | 11.33935 | -67.11605 | 24854 ft | 486 kts | 81° |
| 2026-05-08 01:29 | 11.34381 | -67.08212 | 25048 ft | 484 kts | 81° |
| 2026-05-08 01:29 | 11.34827 | -67.04831 | 25248 ft | 481 kts | 80° |
| 2026-05-08 01:30 | 11.35275 | -67.01475 | 25444 ft | 479 kts | 81° |
| 2026-05-08 01:30 | 11.35716 | -66.98122 | 25638 ft | 476 kts | 83° |
| 2026-05-08 01:30 | 11.36150 | -66.94790 | 25834 ft | 474 kts | 82° |
| 2026-05-08 01:30 | 11.36577 | -66.91496 | 26031 ft | 472 kts | 81° |
| 2026-05-08 01:31 | 11.37014 | -66.88186 | 26231 ft | 469 kts | 81° |
| 2026-05-08 01:31 | 11.37304 | -66.85989 | 26361 ft | 468 kts | 84° |
| 2026-05-08 01:31 | 11.37724 | -66.82752 | 26568 ft | 465 kts | 85° |
| 2026-05-08 01:31 | 11.38286 | -66.78403 | 26822 ft | 461 kts | 81° |
| 2026-05-08 01:32 | 11.38570 | -66.76258 | 26963 ft | 459 kts | 79° |
| 2026-05-08 01:32 | 11.39145 | -66.71993 | 27247 ft | 453 kts | 79° |
| 2026-05-08 01:32 | 11.39579 | -66.68834 | 27446 ft | 449 kts | 79° |
| 2026-05-08 01:32 | 11.39867 | -66.66752 | 27575 ft | 446 kts | 79° |
| 2026-05-08 01:33 | 11.40426 | -66.62602 | 27836 ft | 441 kts | 79° |
| 2026-05-08 01:33 | 11.40823 | -66.59519 | 28033 ft | 437 kts | 80° |
| 2026-05-08 01:33 | 11.41208 | -66.56477 | 28226 ft | 433 kts | 80° |
| 2026-05-08 01:33 | 11.41601 | -66.53443 | 28425 ft | 429 kts | 80° |
| 2026-05-08 01:34 | 11.41989 | -66.50469 | 28619 ft | 425 kts | 80° |
| 2026-05-08 01:34 | 11.42378 | -66.47505 | 28812 ft | 421 kts | 80° |
| 2026-05-08 01:34 | 11.42638 | -66.45535 | 28941 ft | 417 kts | 80° |
| 2026-05-08 01:34 | 11.43025 | -66.42622 | 29136 ft | 413 kts | 80° |
| 2026-05-08 01:35 | 11.43414 | -66.39744 | 29329 ft | 408 kts | 80° |
| 2026-05-08 01:35 | 11.43928 | -66.35959 | 29583 ft | 402 kts | 80° |
| 2026-05-08 01:35 | 11.44291 | -66.33170 | 29767 ft | 398 kts | 81° |
| 2026-05-08 01:36 | 11.44881 | -66.28525 | 29823 ft | 397 kts | 81° |
| 2026-05-08 01:36 | 11.45747 | -66.22028 | 29823 ft | 397 kts | 79° |
| 2026-05-08 01:37 | 11.46568 | -66.16479 | 29828 ft | 396 kts | 76° |
| 2026-05-08 01:37 | 11.47896 | -66.11063 | 29839 ft | 394 kts | 71° |
| 2026-05-08 01:38 | 11.49495 | -66.05717 | 29827 ft | 395 kts | 70° |
| 2026-05-08 01:38 | 11.51058 | -66.00361 | 29824 ft | 396 kts | 71° |
| 2026-05-08 01:39 | 11.52298 | -65.95860 | 29827 ft | 397 kts | 72° |
| 2026-05-08 01:39 | 11.54008 | -65.89545 | 29827 ft | 397 kts | 72° |
| 2026-05-08 01:40 | 11.55468 | -65.84175 | 29825 ft | 398 kts | 72° |
| 2026-05-08 01:40 | 11.56959 | -65.78708 | 29826 ft | 398 kts | 73° |
| 2026-05-08 01:41 | 11.58437 | -65.73295 | 29826 ft | 397 kts | 73° |
| 2026-05-08 01:41 | 11.59921 | -65.67902 | 29827 ft | 396 kts | 74° |
| 2026-05-08 01:42 | 11.61403 | -65.62494 | 29824 ft | 396 kts | 76° |
| 2026-05-08 01:42 | 11.62881 | -65.57098 | 29825 ft | 395 kts | 76° |
| 2026-05-08 01:43 | 11.64363 | -65.51714 | 29825 ft | 395 kts | 75° |
| 2026-05-08 01:43 | 11.65598 | -65.47240 | 29826 ft | 394 kts | 74° |
| 2026-05-08 01:44 | 11.67340 | -65.40973 | 29826 ft | 394 kts | 73° |
| 2026-05-08 01:44 | 11.68535 | -65.36487 | 29827 ft | 394 kts | 75° |
| 2026-05-08 01:45 | 11.70029 | -65.30179 | 29827 ft | 393 kts | 76° |
| 2026-05-08 01:45 | 11.71287 | -65.24705 | 29526 ft | 401 kts | 76° |
| 2026-05-08 01:45 | 11.71931 | -65.21925 | 29268 ft | 408 kts | 75° |
| 2026-05-08 01:46 | 11.72378 | -65.20034 | 29091 ft | 412 kts | 75° |
| 2026-05-08 01:46 | 11.73057 | -65.17188 | 28829 ft | 419 kts | 75° |
| 2026-05-08 01:46 | 11.73988 | -65.13294 | 28467 ft | 428 kts | 73° |
| 2026-05-08 01:46 | 11.74682 | -65.10371 | 28203 ft | 435 kts | 73° |
| 2026-05-08 01:47 | 11.75418 | -65.07309 | 27931 ft | 442 kts | 73° |
| 2026-05-08 01:47 | 11.76148 | -65.04261 | 27670 ft | 448 kts | 74° |
| 2026-05-08 01:47 | 11.76891 | -65.01145 | 27404 ft | 454 kts | 74° |
| 2026-05-08 01:48 | 11.78363 | -64.94827 | 26889 ft | 463 kts | 74° |
| 2026-05-08 01:48 | 11.79117 | -64.91645 | 26821 ft | 462 kts | 74° |
| 2026-05-08 01:48 | 11.79876 | -64.88471 | 26820 ft | 461 kts | 74° |
| 2026-05-08 01:48 | 11.80631 | -64.85306 | 26822 ft | 459 kts | 74° |
| 2026-05-08 01:49 | 11.81383 | -64.82151 | 26822 ft | 458 kts | 74° |
| 2026-05-08 01:49 | 11.81879 | -64.80052 | 26823 ft | 458 kts | 73° |
| 2026-05-08 01:49 | 11.82860 | -64.75853 | 26822 ft | 457 kts | 73° |
| 2026-05-08 01:49 | 11.83600 | -64.72703 | 26719 ft | 459 kts | 73° |
| 2026-05-08 01:50 | 11.84363 | -64.69525 | 26408 ft | 466 kts | 73° |
| 2026-05-08 01:50 | 11.85130 | -64.66318 | 26088 ft | 473 kts | 73° |
| 2026-05-08 01:50 | 11.85899 | -64.63034 | 25884 ft | 477 kts | 73° |
| 2026-05-08 01:50 | 11.86413 | -64.60824 | 25841 ft | 477 kts | 73° |
| 2026-05-08 01:51 | 11.87446 | -64.56459 | 25825 ft | 476 kts | 73° |
| 2026-05-08 01:51 | 11.88230 | -64.53193 | 25825 ft | 475 kts | 73° |
| 2026-05-08 01:51 | 11.89005 | -64.49915 | 25825 ft | 474 kts | 73° |
| 2026-05-08 01:51 | 11.89773 | -64.46656 | 25825 ft | 473 kts | 73° |
| 2026-05-08 01:52 | 11.90268 | -64.44567 | 25824 ft | 473 kts | 73° |
| 2026-05-08 01:52 | 11.91322 | -64.40134 | 25825 ft | 472 kts | 73° |
| 2026-05-08 01:52 | 11.92091 | -64.36892 | 25826 ft | 471 kts | 73° |
| 2026-05-08 01:52 | 11.92839 | -64.33714 | 25827 ft | 471 kts | 73° |
| 2026-05-08 01:53 | 11.93617 | -64.30407 | 25824 ft | 470 kts | 73° |
| 2026-05-08 01:53 | 11.94378 | -64.27183 | 25819 ft | 469 kts | 73° |
| 2026-05-08 01:53 | 11.95141 | -64.23947 | 25816 ft | 468 kts | 73° |
| 2026-05-08 01:53 | 11.95888 | -64.20755 | 25816 ft | 467 kts | 73° |
| 2026-05-08 01:54 | 11.96650 | -64.17525 | 25816 ft | 466 kts | 73° |
| 2026-05-08 01:54 | 11.97405 | -64.14328 | 25817 ft | 465 kts | 74° |
| 2026-05-08 01:54 | 11.98157 | -64.11136 | 25817 ft | 464 kts | 74° |
| 2026-05-08 01:54 | 11.98883 | -64.08056 | 25816 ft | 463 kts | 74° |
| 2026-05-08 01:55 | 11.99665 | -64.04737 | 25817 ft | 462 kts | 74° |
| 2026-05-08 01:55 | 12.00416 | -64.01559 | 25817 ft | 461 kts | 74° |
| 2026-05-08 01:55 | 12.01163 | -63.98401 | 25817 ft | 460 kts | 74° |
| 2026-05-08 01:55 | 12.01914 | -63.95233 | 25815 ft | 459 kts | 74° |
| 2026-05-08 01:56 | 12.02417 | -63.93115 | 25816 ft | 459 kts | 74° |
| 2026-05-08 01:56 | 12.03418 | -63.88908 | 25816 ft | 458 kts | 74° |
| 2026-05-08 01:56 | 12.04167 | -63.85758 | 25815 ft | 457 kts | 74° |
| 2026-05-08 01:56 | 12.04919 | -63.82603 | 25815 ft | 457 kts | 74° |
| 2026-05-08 01:57 | 12.05667 | -63.79467 | 25816 ft | 456 kts | 74° |
| 2026-05-08 01:57 | 12.06415 | -63.76333 | 25816 ft | 456 kts | 74° |
| 2026-05-08 01:57 | 12.07166 | -63.73186 | 25816 ft | 455 kts | 74° |
| 2026-05-08 01:57 | 12.07913 | -63.70055 | 25816 ft | 455 kts | 74° |
| 2026-05-08 01:58 | 12.08661 | -63.66925 | 25816 ft | 455 kts | 74° |
| 2026-05-08 01:58 | 12.09407 | -63.63801 | 25817 ft | 454 kts | 74° |
| 2026-05-08 01:58 | 12.10156 | -63.60666 | 25816 ft | 454 kts | 74° |
| 2026-05-08 01:58 | 12.10902 | -63.57541 | 25816 ft | 454 kts | 74° |
| 2026-05-08 01:59 | 12.11399 | -63.55457 | 25815 ft | 453 kts | 74° |
| 2026-05-08 01:59 | 12.12389 | -63.51312 | 25814 ft | 453 kts | 74° |
| 2026-05-08 01:59 | 12.13129 | -63.48187 | 25813 ft | 453 kts | 73° |
| 2026-05-08 01:59 | 12.13861 | -63.45055 | 25814 ft | 454 kts | 73° |
| 2026-05-08 02:00 | 12.14587 | -63.41918 | 25815 ft | 454 kts | 74° |
| 2026-05-08 02:00 | 12.15315 | -63.38796 | 25815 ft | 454 kts | 73° |
| 2026-05-08 02:00 | 12.16063 | -63.35660 | 25816 ft | 455 kts | 73° |
| 2026-05-08 02:00 | 12.16819 | -63.32522 | 25816 ft | 456 kts | 73° |
| 2026-05-08 02:01 | 12.17559 | -63.29383 | 25818 ft | 456 kts | 73° |
| 2026-05-08 02:01 | 12.18296 | -63.26236 | 25817 ft | 457 kts | 73° |
| 2026-05-08 02:01 | 12.19047 | -63.23084 | 25816 ft | 457 kts | 73° |
| 2026-05-08 02:01 | 12.19789 | -63.19942 | 25820 ft | 457 kts | 74° |
| 2026-05-08 02:02 | 12.20528 | -63.16797 | 25820 ft | 457 kts | 74° |
| 2026-05-08 02:02 | 12.21273 | -63.13633 | 25818 ft | 456 kts | 74° |
| 2026-05-08 02:02 | 12.22016 | -63.10496 | 25816 ft | 456 kts | 74° |
| 2026-05-08 02:02 | 12.22761 | -63.07359 | 25819 ft | 455 kts | 75° |
| 2026-05-08 02:03 | 12.23505 | -63.04220 | 25818 ft | 454 kts | 76° |
| 2026-05-08 02:03 | 12.24239 | -63.01091 | 25815 ft | 453 kts | 76° |
| 2026-05-08 02:03 | 12.24973 | -62.97963 | 25817 ft | 452 kts | 76° |
| 2026-05-08 02:03 | 12.25705 | -62.94869 | 25816 ft | 451 kts | 76° |
| 2026-05-08 02:04 | 12.26449 | -62.91747 | 25816 ft | 451 kts | 76° |
| 2026-05-08 02:04 | 12.27192 | -62.88641 | 25815 ft | 450 kts | 76° |
| 2026-05-08 02:04 | 12.27924 | -62.85547 | 25814 ft | 449 kts | 75° |
| 2026-05-08 02:04 | 12.28657 | -62.82449 | 25815 ft | 449 kts | 75° |
| 2026-05-08 02:05 | 12.29381 | -62.79363 | 25814 ft | 447 kts | 75° |
| 2026-05-08 02:05 | 12.30113 | -62.76272 | 25815 ft | 447 kts | 74° |
| 2026-05-08 02:05 | 12.30838 | -62.73243 | 25815 ft | 448 kts | 74° |
| 2026-05-08 02:05 | 12.31591 | -62.70102 | 25816 ft | 448 kts | 74° |
| 2026-05-08 02:06 | 12.32330 | -62.67016 | 25818 ft | 448 kts | 74° |
| 2026-05-08 02:06 | 12.33068 | -62.63926 | 25817 ft | 448 kts | 74° |
| 2026-05-08 02:06 | 12.33795 | -62.60841 | 25818 ft | 448 kts | 75° |
| 2026-05-08 02:06 | 12.34520 | -62.57743 | 25818 ft | 448 kts | 75° |
| 2026-05-08 02:07 | 12.35235 | -62.54655 | 25816 ft | 448 kts | 76° |
| 2026-05-08 02:07 | 12.35946 | -62.51560 | 25816 ft | 447 kts | 76° |
| 2026-05-08 02:07 | 12.36421 | -62.49500 | 25817 ft | 447 kts | 76° |
| 2026-05-08 02:07 | 12.37390 | -62.45387 | 25818 ft | 447 kts | 76° |
| 2026-05-08 02:08 | 12.38117 | -62.42306 | 25817 ft | 447 kts | 76° |
| 2026-05-08 02:08 | 12.38842 | -62.39226 | 25815 ft | 446 kts | 76° |
| 2026-05-08 02:08 | 12.39572 | -62.36145 | 25814 ft | 446 kts | 75° |
| 2026-05-08 02:08 | 12.40216 | -62.33459 | 25813 ft | 446 kts | 74° |
| 2026-05-08 02:09 | 12.40851 | -62.30818 | 25816 ft | 446 kts | 75° |
| 2026-05-08 02:09 | 12.41589 | -62.27728 | 25819 ft | 446 kts | 77° |
| 2026-05-08 02:09 | 12.42318 | -62.24651 | 25816 ft | 446 kts | 77° |
| 2026-05-08 02:09 | 12.43049 | -62.21573 | 25815 ft | 446 kts | 77° |
| 2026-05-08 02:10 | 12.43767 | -62.18491 | 25816 ft | 445 kts | 77° |
| 2026-05-08 02:10 | 12.44482 | -62.15422 | 25817 ft | 445 kts | 77° |
| 2026-05-08 02:10 | 12.45209 | -62.12359 | 25817 ft | 445 kts | 77° |
| 2026-05-08 02:10 | 12.45936 | -62.09283 | 25816 ft | 445 kts | 77° |
| 2026-05-08 02:11 | 12.46422 | -62.07225 | 25818 ft | 445 kts | 77° |
| 2026-05-08 02:11 | 12.47394 | -62.03134 | 25817 ft | 445 kts | 75° |
| 2026-05-08 02:11 | 12.48128 | -62.00068 | 25815 ft | 445 kts | 75° |
| 2026-05-08 02:11 | 12.48864 | -61.96996 | 25815 ft | 445 kts | 75° |
| 2026-05-08 02:12 | 12.49590 | -61.93924 | 25815 ft | 446 kts | 75° |
| 2026-05-08 02:12 | 12.50324 | -61.90848 | 25816 ft | 446 kts | 74° |
| 2026-05-08 02:12 | 12.51062 | -61.87786 | 25816 ft | 446 kts | 74° |
| 2026-05-08 02:12 | 12.51803 | -61.84708 | 25817 ft | 446 kts | 74° |
| 2026-05-08 02:13 | 12.52528 | -61.81639 | 25816 ft | 447 kts | 74° |
| 2026-05-08 02:13 | 12.53258 | -61.78552 | 25817 ft | 447 kts | 74° |
| 2026-05-08 02:13 | 12.53503 | -61.77520 | 25816 ft | 447 kts | 74° |
| 2026-05-08 02:14 | 12.55956 | -61.67118 | 25808 ft | 451 kts | 73° |
| 2026-05-08 02:15 | 12.55978 | -61.67025 | 25808 ft | 451 kts | 73° |
| 2026-05-08 02:16 | 12.56680 | -61.63990 | 25813 ft | 452 kts | 73° |
| 2026-05-08 02:16 | 12.57439 | -61.60787 | 25818 ft | 454 kts | 73° |
| 2026-05-08 02:16 | 12.58187 | -61.57633 | 25817 ft | 456 kts | 73° |
| 2026-05-08 02:16 | 12.58927 | -61.54476 | 25817 ft | 458 kts | 73° |
| 2026-05-08 02:17 | 12.59424 | -61.52361 | 25817 ft | 459 kts | 73° |
| 2026-05-08 02:17 | 12.59969 | -61.50049 | 25823 ft | 459 kts | 73° |
| 2026-05-08 02:17 | 12.60720 | -61.46888 | 25826 ft | 459 kts | 73° |
| 2026-05-08 02:17 | 12.61474 | -61.43694 | 25822 ft | 459 kts | 74° |
| 2026-05-08 02:18 | 12.62210 | -61.40574 | 25818 ft | 458 kts | 74° |
| 2026-05-08 02:18 | 12.62964 | -61.37391 | 25816 ft | 458 kts | 74° |
| 2026-05-08 02:18 | 12.63720 | -61.34206 | 25812 ft | 458 kts | 73° |
| 2026-05-08 02:18 | 12.64472 | -61.31043 | 25734 ft | 460 kts | 73° |
| 2026-05-08 02:19 | 12.65236 | -61.27847 | 25216 ft | 468 kts | 73° |
| 2026-05-08 02:19 | 12.65898 | -61.25029 | 24795 ft | 471 kts | 73° |
| 2026-05-08 02:19 | 12.66675 | -61.21685 | 24394 ft | 471 kts | 74° |
| 2026-05-08 02:19 | 12.67421 | -61.18447 | 23999 ft | 462 kts | 74° |
| 2026-05-08 02:20 | 12.68147 | -61.15346 | 23618 ft | 451 kts | 73° |
| 2026-05-08 02:20 | 12.68897 | -61.12227 | 23225 ft | 440 kts | 73° |
| 2026-05-08 02:20 | 12.69624 | -61.09212 | 22841 ft | 435 kts | 73° |
| 2026-05-08 02:20 | 12.70340 | -61.06200 | 22479 ft | 439 kts | 74° |
| 2026-05-08 02:21 | 12.71065 | -61.03137 | 22112 ft | 446 kts | 74° |
| 2026-05-08 02:21 | 12.71790 | -61.00074 | 21742 ft | 445 kts | 74° |
| 2026-05-08 02:21 | 12.72503 | -60.97003 | 21365 ft | 441 kts | 75° |
| 2026-05-08 02:21 | 12.73205 | -60.93957 | 20990 ft | 438 kts | 74° |
| 2026-05-08 02:22 | 12.73879 | -60.91066 | 20644 ft | 429 kts | 74° |
| 2026-05-08 02:22 | 12.74571 | -60.88151 | 20289 ft | 421 kts | 73° |
| 2026-05-08 02:22 | 12.75267 | -60.85239 | 19932 ft | 418 kts | 73° |
| 2026-05-08 02:22 | 12.75943 | -60.82371 | 19542 ft | 407 kts | 74° |
| 2026-05-08 02:23 | 12.76592 | -60.79630 | 19153 ft | 392 kts | 75° |
| 2026-05-08 02:23 | 12.77224 | -60.76941 | 18777 ft | 387 kts | 75° |
| 2026-05-08 02:23 | 12.77849 | -60.74289 | 18398 ft | 383 kts | 75° |
| 2026-05-08 02:23 | 12.78477 | -60.71657 | 18020 ft | 380 kts | 75° |
| 2026-05-08 02:24 | 12.79093 | -60.69040 | 17641 ft | 377 kts | 76° |
| 2026-05-08 02:24 | 12.79703 | -60.66430 | 17266 ft | 375 kts | 76° |
| 2026-05-08 02:24 | 12.80307 | -60.63860 | 16891 ft | 370 kts | 75° |
| 2026-05-08 02:24 | 12.80904 | -60.61325 | 16515 ft | 366 kts | 75° |
| 2026-05-08 02:25 | 12.81495 | -60.58805 | 16137 ft | 361 kts | 75° |
| 2026-05-08 02:25 | 12.82079 | -60.56320 | 15760 ft | 358 kts | 75° |
| 2026-05-08 02:25 | 12.82659 | -60.53847 | 15387 ft | 357 kts | 75° |
| 2026-05-08 02:25 | 12.83237 | -60.51390 | 15008 ft | 356 kts | 77° |
| 2026-05-08 02:26 | 12.83821 | -60.48929 | 14637 ft | 353 kts | 78° |
| 2026-05-08 02:26 | 12.84394 | -60.46524 | 14263 ft | 348 kts | 78° |
| 2026-05-08 02:26 | 12.84961 | -60.44131 | 13888 ft | 343 kts | 78° |
| 2026-05-08 02:26 | 12.85515 | -60.41766 | 13511 ft | 338 kts | 79° |
| 2026-05-08 02:27 | 12.86055 | -60.39452 | 13135 ft | 334 kts | 79° |
| 2026-05-08 02:27 | 12.86595 | -60.37146 | 12756 ft | 330 kts | 78° |
| 2026-05-08 02:27 | 12.87139 | -60.34888 | 12381 ft | 325 kts | 78° |
| 2026-05-08 02:27 | 12.87682 | -60.32657 | 11996 ft | 322 kts | 78° |
| 2026-05-08 02:28 | 12.88225 | -60.30421 | 11621 ft | 326 kts | 78° |
| 2026-05-08 02:28 | 12.88760 | -60.28175 | 11249 ft | 325 kts | 78° |
| 2026-05-08 02:28 | 12.89285 | -60.25933 | 10871 ft | 322 kts | 78° |
| 2026-05-08 02:28 | 12.89797 | -60.23730 | 10497 ft | 318 kts | 78° |
| 2026-05-08 02:29 | 12.90298 | -60.21554 | 10123 ft | 315 kts | 78° |
| 2026-05-08 02:29 | 12.90810 | -60.19376 | 9744 ft | 311 kts | 77° |
| 2026-05-08 02:29 | 12.91328 | -60.17226 | 9365 ft | 308 kts | 77° |
| 2026-05-08 02:29 | 12.91829 | -60.15107 | 8990 ft | 305 kts | 77° |
| 2026-05-08 02:30 | 12.92318 | -60.13006 | 8613 ft | 303 kts | 77° |
| 2026-05-08 02:30 | 12.92811 | -60.10921 | 8237 ft | 300 kts | 77° |
| 2026-05-08 02:30 | 12.93302 | -60.08853 | 7861 ft | 298 kts | 77° |
| 2026-05-08 02:30 | 12.93785 | -60.06794 | 7479 ft | 297 kts | 77° |
| 2026-05-08 02:31 | 12.94263 | -60.04774 | 6994 ft | 284 kts | 77° |
| 2026-05-08 02:31 | 12.94707 | -60.02875 | 6665 ft | 276 kts | 78° |
| 2026-05-08 02:31 | 12.95157 | -60.00953 | 6287 ft | 277 kts | 77° |
| 2026-05-08 02:31 | 12.95611 | -59.99045 | 5924 ft | 276 kts | 77° |
| 2026-05-08 02:32 | 12.96061 | -59.97131 | 5548 ft | 276 kts | 78° |
| 2026-05-08 02:32 | 12.96511 | -59.95222 | 5175 ft | 276 kts | 77° |
| 2026-05-08 02:32 | 12.96961 | -59.93325 | 4805 ft | 276 kts | 77° |
| 2026-05-08 02:32 | 12.97411 | -59.91418 | 4431 ft | 276 kts | 77° |
| 2026-05-08 02:33 | 12.97860 | -59.89513 | 4058 ft | 276 kts | 77° |
| 2026-05-08 02:33 | 12.98316 | -59.87593 | 3683 ft | 276 kts | 77° |
| 2026-05-08 02:33 | 12.98757 | -59.85727 | 3231 ft | 265 kts | 78° |
| 2026-05-08 02:33 | 12.99173 | -59.83946 | 2857 ft | 252 kts | 78° |
| 2026-05-08 02:34 | 12.99350 | -59.82224 | 2596 ft | 236 kts | 98° |
| 2026-05-08 02:34 | 12.99190 | -59.80615 | 2886 ft | 225 kts | 87° |
| 2026-05-08 02:34 | 12.99521 | -59.79054 | 3047 ft | 224 kts | 77° |
| 2026-05-08 02:34 | 12.99908 | -59.77577 | 2947 ft | 206 kts | 76° |
| 2026-05-08 02:35 | 13.00265 | -59.76263 | 2990 ft | 191 kts | 76° |
| 2026-05-08 02:35 | 13.00672 | -59.74996 | 2945 ft | 180 kts | 67° |
| 2026-05-08 02:35 | 13.01229 | -59.73871 | 2977 ft | 175 kts | 64° |
| 2026-05-08 02:35 | 13.01768 | -59.72695 | 3058 ft | 185 kts | 68° |
| 2026-05-08 02:36 | 13.02220 | -59.71431 | 3033 ft | 192 kts | 74° |
| 2026-05-08 02:36 | 13.02570 | -59.70116 | 3004 ft | 188 kts | 78° |
| 2026-05-08 02:36 | 13.02841 | -59.68832 | 2951 ft | 182 kts | 80° |
| 2026-05-08 02:36 | 13.03068 | -59.67551 | 2809 ft | 184 kts | 81° |
| 2026-05-08 02:37 | 13.03328 | -59.66284 | 2614 ft | 178 kts | 79° |
| 2026-05-08 02:37 | 13.03596 | -59.65086 | 2408 ft | 168 kts | 78° |
| 2026-05-08 02:37 | 13.03856 | -59.63972 | 2208 ft | 155 kts | 78° |
| 2026-05-08 02:37 | 13.04111 | -59.62907 | 2060 ft | 152 kts | 78° |
| 2026-05-08 02:38 | 13.04356 | -59.61876 | 1965 ft | 147 kts | 79° |
| 2026-05-08 02:38 | 13.04592 | -59.60828 | 1839 ft | 158 kts | 79° |
| 2026-05-08 02:38 | 13.04876 | -59.59727 | 1825 ft | 156 kts | 76° |
| 2026-05-08 02:38 | 13.05138 | -59.58687 | 1708 ft | 149 kts | 79° |
| 2026-05-08 02:39 | 13.05396 | -59.57664 | 1506 ft | 148 kts | 76° |
| 2026-05-08 02:39 | 13.05668 | -59.56640 | 1293 ft | 150 kts | 76° |
| 2026-05-08 02:39 | 13.05922 | -59.55596 | 1128 ft | 151 kts | 79° |
| 2026-05-08 02:39 | 13.06177 | -59.54548 | 968 ft | 152 kts | 78° |
| 2026-05-08 02:40 | 13.06422 | -59.53505 | 818 ft | 151 kts | 77° |
| 2026-05-08 02:40 | 13.06676 | -59.52477 | 637 ft | 152 kts | 78° |
| 2026-05-08 02:40 | 13.06940 | -59.51389 | 406 ft | 155 kts | 78° |
| 2026-05-08 02:40 | 13.07197 | -59.50321 | 208 ft | 156 kts | 78° |
| 2026-05-08 02:41 | 13.07432 | -59.49330 | 177 ft | 120 kts | 75° |
| 2026-05-08 02:41 | 13.07579 | -59.48740 | 177 ft | 60 kts | 76° |
| 2026-05-08 02:41 | 13.07657 | -59.48434 | 177 ft | 34 kts | 76° |
| 2026-05-08 02:41 | 13.07747 | -59.48310 | 177 ft | 13 kts | 339° |
| 2026-05-08 02:42 | 13.07791 | -59.48345 | 177 ft | 6 kts | 321° |
| 2026-05-08 02:42 | 13.07827 | -59.48369 | 177 ft | 7 kts | 339° |
| 2026-05-08 02:42 | 13.07860 | -59.48393 | 177 ft | 5 kts | 289° |
| 2026-05-08 02:42 | 13.07858 | -59.48432 | 177 ft | 6 kts | 261° |
| 2026-05-08 02:43 | 13.07851 | -59.48481 | 177 ft | 7 kts | 261° |
| 2026-05-08 02:43 | 13.07838 | -59.48532 | 177 ft | 8 kts | 256° |
| 2026-05-08 02:43 | 13.07824 | -59.48590 | 177 ft | 9 kts | 256° |
| 2026-05-08 02:43 | 13.07810 | -59.48648 | 177 ft | 9 kts | 261° |
| 2026-05-08 02:44 | 13.07842 | -59.48676 | 177 ft | 7 kts | 344° |
| 2026-05-08 02:44 | 13.07881 | -59.48686 | 177 ft | 0 kts | 346° |